createdAt,value
2022-12-15T00:03:45.208Z,1.92
2022-12-15T00:09:12.660Z,1.76
2022-12-15T00:14:36.895Z,1.69
2022-12-15T00:19:58.572Z,2.30
2022-12-15T00:25:20.612Z,1.92
2022-12-15T00:30:43.440Z,1.83
2022-12-15T00:36:04.646Z,1.51
2022-12-15T00:41:08.837Z,1.72
2022-12-15T00:46:32.676Z,1.74
2022-12-15T00:51:54.396Z,1.77
2022-12-15T00:57:16.159Z,1.48
2022-12-15T01:02:39.028Z,1.28
2022-12-15T01:08:00.737Z,1.33
2022-12-15T01:13:23.479Z,1.36
2022-12-15T01:18:49.632Z,1.18
2022-12-15T01:23:54.529Z,0.96
2022-12-15T01:28:58.550Z,1.30
2022-12-15T01:34:04.086Z,1.44
2022-12-15T01:39:08.258Z,1.68
2022-12-15T01:44:20.711Z,1.87
2022-12-15T01:49:30.391Z,1.98
2022-12-15T01:54:39.914Z,2.14
2022-12-15T01:59:50.834Z,2.01
2022-12-15T02:04:59.057Z,1.87
2022-12-15T02:10:07.396Z,1.80
2022-12-15T02:15:21.797Z,1.85
2022-12-15T02:20:48.796Z,2.22
2022-12-15T02:26:11.599Z,2.38
2022-12-15T02:31:39.433Z,1.73
2022-12-15T02:36:48.283Z,1.92
2022-12-15T02:41:54.951Z,1.79
2022-12-15T02:47:26.403Z,1.96
2022-12-15T02:52:46.077Z,1.88
2022-12-15T02:57:54.417Z,2.02
2022-12-15T03:03:00.993Z,1.92
2022-12-15T03:08:05.341Z,1.87
2022-12-15T03:13:09.629Z,1.92
2022-12-15T03:18:16.558Z,2.02
2022-12-15T03:23:23.023Z,2.01
2022-12-15T03:28:27.043Z,1.88
2022-12-15T03:33:34.672Z,2.00
2022-12-15T03:38:39.223Z,1.61
2022-12-15T03:43:43.275Z,1.43
2022-12-15T03:48:48.896Z,1.55
2022-12-15T03:53:53.930Z,1.58
2022-12-15T03:58:58.051Z,2.08
2022-12-15T04:04:04.502Z,1.81
2022-12-15T04:09:08.786Z,1.99
2022-12-15T04:14:12.919Z,1.71
2022-12-15T04:19:35.749Z,2.01
2022-12-15T04:24:56.814Z,1.97
2022-12-15T04:30:18.638Z,1.96
2022-12-15T04:35:41.203Z,1.92
2022-12-15T04:41:02.833Z,2.26
2022-12-15T04:46:24.571Z,2.10
2022-12-15T04:51:47.273Z,2.10
2022-12-15T04:57:08.453Z,2.03
2022-12-15T05:02:29.620Z,2.33
2022-12-15T05:07:52.568Z,2.30
2022-12-15T05:13:14.195Z,2.20
2022-12-15T05:18:36.092Z,1.96
2022-12-15T05:23:58.890Z,2.06
2022-12-15T05:29:20.646Z,2.15
2022-12-15T05:34:27.098Z,2.31
2022-12-15T05:39:32.671Z,2.16
2022-12-15T05:44:36.740Z,2.29
2022-12-15T05:49:42.531Z,2.38
2022-12-15T05:54:49.137Z,1.94
2022-12-15T05:59:53.415Z,2.03
2022-12-15T06:04:57.520Z,1.96
2022-12-15T06:10:03.009Z,1.98
2022-12-15T06:15:07.872Z,2.23
2022-12-15T06:20:13.435Z,2.26
2022-12-15T06:25:18.966Z,2.36
2022-12-15T06:30:23.118Z,2.54
2022-12-15T06:35:27.531Z,2.55
2022-12-15T06:40:37.657Z,2.48
2022-12-15T06:45:49.877Z,2.54
2022-12-15T06:50:54.179Z,2.61
2022-12-15T06:56:18.074Z,2.85
2022-12-15T07:01:23.672Z,2.59
2022-12-15T07:06:30.420Z,2.66
2022-12-15T07:11:36.155Z,2.58
2022-12-15T07:16:41.285Z,2.54
2022-12-15T07:21:45.672Z,2.66
2022-12-15T07:26:51.206Z,2.80
2022-12-15T07:31:56.262Z,2.70
2022-12-15T07:37:03.091Z,3.73
2022-12-15T07:42:09.097Z,4.28
2022-12-15T07:47:13.194Z,4.78
2022-12-15T07:52:17.344Z,5.48
2022-12-15T07:57:24.044Z,6.03
2022-12-15T08:02:28.668Z,5.99
2022-12-15T08:07:32.839Z,6.78
2022-12-15T08:12:38.545Z,7.63
2022-12-15T08:17:42.756Z,7.44
2022-12-15T08:22:47.037Z,7.97
2022-12-15T08:27:53.271Z,8.70
2022-12-15T08:32:57.475Z,9.08
2022-12-15T08:38:05.586Z,9.67
2022-12-15T08:43:12.676Z,9.35
2022-12-15T08:48:17.592Z,8.29
2022-12-15T08:53:31.398Z,8.64
2022-12-15T08:58:37.935Z,8.70
2022-12-15T09:03:42.097Z,9.61
2022-12-15T09:08:48.463Z,9.63
2022-12-15T09:13:57.657Z,10.75
2022-12-15T09:19:02.710Z,11.73
2022-12-15T09:24:07.707Z,11.10
2022-12-15T09:29:14.576Z,11.59
2022-12-15T09:34:20.038Z,12.22
2022-12-15T09:39:24.742Z,13.03
2022-12-15T09:44:34.231Z,13.75
2022-12-15T09:49:48.844Z,13.50
2022-12-15T09:54:53.307Z,14.17
2022-12-15T10:00:10.379Z,15.23
2022-12-15T10:05:29.773Z,15.32
2022-12-15T10:10:46.604Z,15.12
2022-12-15T10:16:01.050Z,15.99
2022-12-15T10:21:05.447Z,14.41
2022-12-15T10:26:20.963Z,14.60
2022-12-15T10:31:36.230Z,14.59
2022-12-15T10:36:50.691Z,14.59
2022-12-15T10:42:24.541Z,14.26
2022-12-15T10:47:32.183Z,14.50
2022-12-15T10:52:38.961Z,14.27
2022-12-15T10:58:01.426Z,13.97
2022-12-15T11:03:22.558Z,13.46
2022-12-15T11:08:28.962Z,12.44
2022-12-15T11:13:35.040Z,12.29
2022-12-15T11:18:48.762Z,12.67
2022-12-15T11:23:59.234Z,12.96
2022-12-15T11:29:12.863Z,13.79
2022-12-15T11:34:21.274Z,13.47
2022-12-15T11:39:38.284Z,13.73
2022-12-15T11:44:53.559Z,13.14
2022-12-15T11:50:21.264Z,13.74
2022-12-15T11:55:41.508Z,13.86
2022-12-15T12:00:52.425Z,13.16
2022-12-15T12:06:09.124Z,13.88
2022-12-15T12:11:17.516Z,13.22
2022-12-15T12:16:33.202Z,12.18
2022-12-15T12:21:44.397Z,13.09
2022-12-15T12:26:56.144Z,13.05
2022-12-15T12:32:09.025Z,12.75
2022-12-15T12:37:23.801Z,11.68
2022-12-15T12:42:36.613Z,10.79
2022-12-15T12:47:45.580Z,10.49
2022-12-15T12:52:53.903Z,10.02
2022-12-15T12:57:59.178Z,9.99
2022-12-15T13:03:20.413Z,9.97
2022-12-15T13:08:55.927Z,9.91
2022-12-15T13:14:00.252Z,9.81
2022-12-15T13:19:08.571Z,9.21
2022-12-15T13:24:27.593Z,8.97
2022-12-15T13:29:31.901Z,9.16
2022-12-15T13:34:39.980Z,9.78
2022-12-15T13:39:58.659Z,9.66
2022-12-15T13:45:39.924Z,9.80
2022-12-15T13:50:54.519Z,9.80
2022-12-15T13:56:46.135Z,9.68
2022-12-15T14:01:52.449Z,9.86
2022-12-15T14:06:59.493Z,9.71
2022-12-15T14:12:07.466Z,9.70
2022-12-15T14:17:16.944Z,9.45
2022-12-15T14:27:50.686Z,8.79
2022-12-15T14:32:59.851Z,8.39
2022-12-15T14:38:08.072Z,8.24
2022-12-15T14:43:20.679Z,8.11
2022-12-15T14:48:41.114Z,7.95
2022-12-15T14:53:57.218Z,7.91
2022-12-15T14:59:04.882Z,7.95
2022-12-15T15:04:25.183Z,7.56
2022-12-15T15:09:31.546Z,7.63
2022-12-15T15:14:46.269Z,7.38
2022-12-15T15:19:53.020Z,7.38
2022-12-15T15:24:57.458Z,7.48
2022-12-15T15:30:19.989Z,7.45
2022-12-15T15:35:27.051Z,7.34
2022-12-15T15:40:33.213Z,7.30
2022-12-15T15:45:38.958Z,7.30
2022-12-15T15:50:43.382Z,7.42
2022-12-15T15:55:50.591Z,7.39
2022-12-15T16:00:58.341Z,7.36
2022-12-15T16:06:03.105Z,7.40
2022-12-15T16:11:07.884Z,7.37
2022-12-15T16:16:19.259Z,7.31
2022-12-15T16:21:27.717Z,6.98
2022-12-15T16:26:34.363Z,7.22
2022-12-15T16:31:45.494Z,7.18
2022-12-15T16:36:51.317Z,6.72
2022-12-15T16:41:56.934Z,6.86
2022-12-15T16:47:05.353Z,6.67
2022-12-15T16:52:20.355Z,6.51
2022-12-15T16:57:25.465Z,6.44
2022-12-15T17:02:34.921Z,6.76
2022-12-15T17:07:41.210Z,6.74
2022-12-15T17:12:49.328Z,6.68
2022-12-15T17:17:58.361Z,6.35
2022-12-15T17:23:05.883Z,6.14
2022-12-15T17:28:17.359Z,5.83
2022-12-15T17:33:26.366Z,5.68
2022-12-15T17:38:30.878Z,5.79
2022-12-15T17:43:36.199Z,5.79
2022-12-15T17:48:41.900Z,5.83
2022-12-15T17:53:47.717Z,6.09
2022-12-15T17:58:52.203Z,5.84
2022-12-15T18:03:57.765Z,6.05
2022-12-15T18:09:02.319Z,6.06
2022-12-15T18:14:11.178Z,6.19
2022-12-15T18:19:16.838Z,6.04
2022-12-15T18:24:21.688Z,6.30
2022-12-15T18:29:26.383Z,5.88
2022-12-15T18:34:31.866Z,5.76
2022-12-15T18:39:36.731Z,6.20
2022-12-15T18:44:48.961Z,6.23
2022-12-15T18:49:54.742Z,6.25
2022-12-15T18:54:59.751Z,5.94
2022-12-15T19:00:17.725Z,6.28
2022-12-15T19:05:29.439Z,6.35
2022-12-15T19:10:35.769Z,6.25
2022-12-15T19:15:39.743Z,6.23
2022-12-15T19:21:02.664Z,6.16
2022-12-15T19:26:07.130Z,6.11
2022-12-15T19:31:11.354Z,6.34
2022-12-15T19:36:21.261Z,5.61
2022-12-15T19:41:26.304Z,5.43
2022-12-15T19:46:30.421Z,5.77
2022-12-15T19:51:35.950Z,5.88
2022-12-15T19:56:40.477Z,5.57
2022-12-15T20:01:44.622Z,5.68
2022-12-15T20:06:50.563Z,5.48
2022-12-15T20:11:54.567Z,5.25
2022-12-15T20:16:59.330Z,5.22
2022-12-15T20:22:06.943Z,5.27
2022-12-15T20:27:14.483Z,5.70
2022-12-15T20:32:22.141Z,5.43
2022-12-15T20:37:30.319Z,5.38
2022-12-15T20:42:34.380Z,5.33
2022-12-15T20:47:43.642Z,5.15
2022-12-15T20:52:49.648Z,5.20
2022-12-15T20:57:55.933Z,5.40
2022-12-15T21:03:00.359Z,5.31
2022-12-15T21:08:15.750Z,5.42
2022-12-15T21:13:23.300Z,5.32
2022-12-15T21:19:11.046Z,5.29
2022-12-15T21:23:54.696Z,5.23
2022-12-15T21:29:00.934Z,5.15
2022-12-15T21:34:05.008Z,5.00
2022-12-15T21:39:14.033Z,4.89
2022-12-15T21:44:18.825Z,4.84
2022-12-15T21:49:24.098Z,4.80
2022-12-15T21:54:32.906Z,4.74
2022-12-15T21:59:38.831Z,4.88
2022-12-15T22:04:43.162Z,4.81
2022-12-15T22:09:48.658Z,4.89
2022-12-15T22:14:53.309Z,4.70
2022-12-15T22:19:57.375Z,4.74
2022-12-15T22:25:04.180Z,4.57
2022-12-15T22:30:16.236Z,4.48
2022-12-15T22:35:22.861Z,4.31
2022-12-15T22:40:30.383Z,4.32
2022-12-15T22:45:37.092Z,4.20
2022-12-15T22:50:45.253Z,4.31
2022-12-15T22:55:52.246Z,4.19
2022-12-15T23:00:58.893Z,4.17
2022-12-15T23:06:04.894Z,4.06
2022-12-15T23:11:28.128Z,4.07
2022-12-15T23:16:32.503Z,4.13
2022-12-15T23:21:37.503Z,4.20
2022-12-15T23:26:42.843Z,4.06
2022-12-15T23:31:47.551Z,4.29
2022-12-15T23:36:51.741Z,4.05
2022-12-15T23:41:57.308Z,3.96
2022-12-15T23:47:01.632Z,4.22
2022-12-15T23:52:07.149Z,4.31
2022-12-15T23:57:15.583Z,4.43
